Time;durP1;ratioP1;P1;durP2;ratioP2;P2;SDS_P1;SDS_P2;PMS_P1;PMS_P2;Temp;Humidity;BMP_temperature;BMP_pressure;BME280_temperature;BME280_humidity;BME280_pressure;Samples;Min_cycle;Max_cycle;Signal;HPM_P1;HPM_P2
2022/12/05 00:04:52;;;;;;;22.13;8.18;;;7.40;98.80;;;;;;9666214;30;20172;-64
2022/12/05 00:09:53;;;;;;;16.55;6.72;;;6.90;98.70;;;;;;9663484;30;20031;-64
2022/12/05 00:14:53;;;;;;;21.50;8.57;;;6.90;98.70;;;;;;9667589;30;20265;-64
2022/12/05 00:19:54;;;;;;;18.40;7.82;;;6.90;98.70;;;;;;9642043;30;20022;-64
2022/12/05 00:24:55;;;;;;;17.42;8.38;;;7.00;98.70;;;;;;9668211;30;20253;-64
2022/12/05 00:29:56;;;;;;;20.23;7.45;;;6.90;98.70;;;;;;9665378;30;20030;-64
2022/12/05 00:34:57;;;;;;;19.92;8.10;;;6.90;98.70;;;;;;9667835;30;20116;-64
2022/12/05 00:39:57;;;;;;;18.05;7.25;;;6.90;98.70;;;;;;9663429;30;20039;-64
2022/12/05 00:44:58;;;;;;;17.55;8.10;;;7.00;98.70;;;;;;9662979;30;20043;-64
2022/12/05 00:49:58;;;;;;;14.73;6.75;;;6.90;98.70;;;;;;9661729;30;20081;-64
2022/12/05 00:54:59;;;;;;;16.98;7.53;;;6.90;98.70;;;;;;9667105;30;20320;-64
2022/12/05 01:00:00;;;;;;;16.27;7.03;;;6.90;98.70;;;;;;9665825;30;20038;-64
2022/12/05 01:05:01;;;;;;;16.60;7.50;;;6.90;98.70;;;;;;9665113;30;20047;-64
2022/12/05 01:10:02;;;;;;;17.27;7.40;;;6.90;98.70;;;;;;9659877;30;20071;-63
2022/12/05 01:15:03;;;;;;;16.67;7.45;;;6.90;98.70;;;;;;9663969;30;20038;-64
2022/12/05 01:20:05;;;;;;;17.67;6.93;;;6.90;98.70;;;;;;9639825;30;20097;-63
2022/12/05 01:25:06;;;;;;;16.08;7.18;;;6.90;98.80;;;;;;9663339;30;20441;-63
2022/12/05 01:30:07;;;;;;;16.42;6.95;;;6.90;98.70;;;;;;9661926;30;20502;-63
2022/12/05 01:35:08;;;;;;;13.63;6.18;;;7.00;98.80;;;;;;9668263;30;20497;-64
2022/12/05 01:40:09;;;;;;;17.42;7.70;;;6.90;98.80;;;;;;9660498;30;20039;-64
2022/12/05 01:45:39;;;;;;;16.05;6.93;;;7.00;98.80;;;;;;9663539;30;20038;-64
2022/12/05 01:50:39;;;;;;;;;;;7.00;98.80;;;;;;9659894;30;20057;-64
2022/12/05 01:55:40;;;;;;;16.33;6.65;;;6.90;98.90;;;;;;9666602;30;19931;-63
2022/12/05 02:00:42;;;;;;;15.07;6.53;;;7.00;98.80;;;;;;9663961;30;20062;-64
2022/12/05 02:05:43;;;;;;;14.77;6.72;;;7.20;98.90;;;;;;9666959;30;20026;-64
2022/12/05 02:10:51;;;;;;;13.80;6.47;;;7.00;98.80;;;;;;9654419;30;20055;-64
2022/12/05 02:15:58;;;;;;;14.97;6.23;;;7.00;98.90;;;;;;9663872;30;20041;-63
2022/12/05 02:21:05;;;;;;;15.07;6.95;;;7.20;98.90;;;;;;9658566;30;20037;-64
2022/12/05 02:26:28;;;;;;;17.48;6.70;;;7.00;98.90;;;;;;9663314;30;20030;-64
2022/12/05 02:31:45;;;;;;;17.52;6.80;;;7.30;98.90;;;;;;9653209;30;20054;-64
2022/12/05 02:36:56;;;;;;;15.63;6.47;;;7.00;98.90;;;;;;9642808;30;20022;-64
2022/12/05 02:42:22;;;;;;;17.45;7.40;;;7.00;99.00;;;;;;9660059;30;20496;-64
2022/12/05 02:47:28;;;;;;;14.10;6.50;;;7.00;98.90;;;;;;9660158;30;20042;-64
2022/12/05 02:52:31;;;;;;;17.70;7.32;;;7.10;98.90;;;;;;9658547;30;20058;-64
2022/12/05 02:57:33;;;;;;;13.55;6.43;;;7.30;99.00;;;;;;9663201;30;20607;-64
2022/12/05 03:02:34;;;;;;;14.00;6.55;;;7.10;99.00;;;;;;9662198;30;20497;-63
2022/12/05 03:07:37;;;;;;;14.38;6.47;;;7.00;98.90;;;;;;9661895;30;20182;-63
2022/12/05 03:12:42;;;;;;;14.90;6.50;;;7.10;99.00;;;;;;9660224;30;20042;-64
2022/12/05 03:18:08;;;;;;;12.25;5.95;;;7.10;99.00;;;;;;9662575;30;20103;-64
2022/12/05 03:23:23;;;;;;;14.63;7.03;;;7.10;99.10;;;;;;9647796;30;20030;-64
2022/12/05 03:28:39;;;;;;;12.65;6.30;;;7.10;99.00;;;;;;9654135;30;20030;-64
2022/12/05 03:33:44;;;;;;;18.17;7.40;;;7.10;99.10;;;;;;9648841;30;20050;-64
2022/12/05 03:39:16;;;;;;;13.65;6.22;;;7.00;99.10;;;;;;9652275;30;20046;-64
2022/12/05 03:44:28;;;;;;;14.63;6.63;;;7.10;99.20;;;;;;9652704;30;20117;-64
2022/12/05 03:49:36;;;;;;;17.77;7.10;;;7.60;99.30;;;;;;9662881;30;20393;-64
2022/12/05 03:54:45;;;;;;;15.90;7.47;;;7.10;99.20;;;;;;9655464;30;20145;-64
2022/12/05 03:59:54;;;;;;;14.33;6.57;;;7.10;99.20;;;;;;9663443;30;20120;-64
2022/12/05 04:05:12;;;;;;;16.55;7.22;;;7.10;99.20;;;;;;9668291;30;20034;-64
2022/12/05 04:10:18;;;;;;;13.27;6.95;;;7.10;99.30;;;;;;9671445;30;20030;-64
2022/12/05 04:15:25;;;;;;;14.23;6.65;;;7.10;99.30;;;;;;9661613;30;20037;-64
2022/12/05 04:26:22;;;;;;;15.10;6.82;;;7.10;99.30;;;;;;9668166;30;20034;-64
2022/12/05 04:31:38;;;;;;;17.42;6.82;;;7.10;99.60;;;;;;9657216;30;20429;-64
2022/12/05 04:36:49;;;;;;;15.57;7.35;;;7.10;99.30;;;;;;9663888;30;20038;-64
2022/12/05 04:41:54;;;;;;;13.80;6.70;;;7.20;99.30;;;;;;9661867;30;20031;-65
2022/12/05 04:46:58;;;;;;;17.70;7.78;;;7.20;99.30;;;;;;9665115;30;20030;-64
2022/12/05 04:52:03;;;;;;;14.50;7.00;;;7.20;99.40;;;;;;9665568;30;20057;-64
2022/12/05 04:57:16;;;;;;;16.55;6.45;;;7.20;99.40;;;;;;9668667;30;20073;-64
2022/12/05 05:02:41;;;;;;;15.85;6.95;;;7.20;99.40;;;;;;9659188;30;20030;-64
2022/12/05 05:07:47;;;;;;;15.48;6.90;;;7.70;99.60;;;;;;9664379;30;20088;-64
2022/12/05 05:12:48;;;;;;;14.98;6.72;;;7.20;99.40;;;;;;9657036;30;20057;-64
2022/12/05 05:17:49;;;;;;;12.45;6.57;;;7.20;99.40;;;;;;9661874;30;20050;-63
2022/12/05 05:22:51;;;;;;;13.45;6.10;;;7.30;99.50;;;;;;9662680;30;20038;-63
2022/12/05 05:27:54;;;;;;;12.43;6.00;;;7.40;99.50;;;;;;9666952;30;20022;-64
2022/12/05 05:32:55;;;;;;;12.88;6.57;;;7.30;99.50;;;;;;9660275;30;20113;-64
2022/12/05 05:37:56;;;;;;;12.20;5.80;;;7.30;99.50;;;;;;9667508;30;20034;-65
2022/12/05 05:42:57;;;;;;;13.13;5.95;;;7.50;99.60;;;;;;9659246;30;20043;-64
2022/12/05 05:47:57;;;;;;;13.23;6.22;;;7.30;99.60;;;;;;9664319;30;20501;-64
2022/12/05 05:52:58;;;;;;;13.27;6.18;;;7.30;99.60;;;;;;9664667;30;20045;-66
2022/12/05 05:57:59;;;;;;;12.02;5.60;;;7.30;99.90;;;;;;9665585;30;20124;-66
2022/12/05 06:02:59;;;;;;;11.50;5.63;;;7.30;99.80;;;;;;9663088;30;20532;-66
2022/12/05 06:08:00;;;;;;;10.65;4.70;;;7.30;99.80;;;;;;9661002;30;20042;-66
2022/12/05 06:13:01;;;;;;;10.23;4.40;;;7.60;99.80;;;;;;9657785;30;20058;-66
2022/12/05 06:18:02;;;;;;;8.48;4.45;;;7.30;99.80;;;;;;9662247;30;20035;-66
2022/12/05 06:23:02;;;;;;;9.77;4.82;;;7.30;99.90;;;;;;9660318;30;20512;-66
2022/12/05 06:28:03;;;;;;;8.52;4.10;;;7.30;99.80;;;;;;9665702;30;20042;-66
2022/12/05 06:33:05;;;;;;;9.45;4.30;;;7.30;99.80;;;;;;9658338;30;20549;-66
2022/12/05 06:38:06;;;;;;;7.38;4.22;;;7.30;99.80;;;;;;9663347;30;20041;-66
2022/12/05 06:43:06;;;;;;;8.38;4.28;;;7.40;99.80;;;;;;9639932;30;20030;-66
2022/12/05 06:48:07;;;;;;;9.52;4.18;;;7.40;99.80;;;;;;9662081;30;20049;-66
2022/12/05 06:53:08;;;;;;;8.43;4.10;;;7.40;99.80;;;;;;9662429;30;20515;-66
2022/12/05 06:58:08;;;;;;;9.10;4.18;;;7.40;99.80;;;;;;9665173;30;20046;-66
2022/12/05 07:03:10;;;;;;;7.07;3.60;;;7.40;99.90;;;;;;9640292;30;20046;-66
2022/12/05 07:08:10;;;;;;;7.82;3.80;;;7.40;99.80;;;;;;9657196;30;20026;-66
2022/12/05 07:13:11;;;;;;;7.05;3.40;;;7.40;99.80;;;;;;9656206;30;20516;-66
2022/12/05 07:18:12;;;;;;;6.47;3.30;;;7.40;99.80;;;;;;9652362;30;20096;-66
2022/12/05 07:23:13;;;;;;;8.02;3.10;;;7.40;99.90;;;;;;9644490;30;20595;-65
2022/12/05 07:28:14;;;;;;;5.65;2.83;;;7.60;99.90;;;;;;9628912;30;20027;-65
2022/12/05 07:33:14;;;;;;;5.25;3.05;;;7.40;99.90;;;;;;9640944;30;20477;-66
2022/12/05 07:38:15;;;;;;;5.70;3.28;;;7.50;99.90;;;;;;9663295;30;20034;-66
2022/12/05 07:43:16;;;;;;;4.30;2.70;;;7.90;99.90;;;;;;9656317;30;20138;-66
2022/12/05 07:48:16;;;;;;;3.90;2.55;;;7.40;99.90;;;;;;9659462;30;20037;-66
2022/12/05 07:53:17;;;;;;;5.32;2.38;;;7.50;99.90;;;;;;9636636;30;20534;-65
2022/12/05 07:58:18;;;;;;;5.80;3.10;;;7.50;99.90;;;;;;9608385;30;20435;-65
2022/12/05 08:03:19;;;;;;;3.42;2.03;;;7.50;99.90;;;;;;9585494;30;20603;-64
2022/12/05 08:08:38;;;;;;;4.35;2.25;;;7.70;99.90;;;;;;9586765;30;21809;-66
2022/12/05 08:13:45;;;;;;;3.95;2.47;;;7.80;99.90;;;;;;9565197;30;20447;-66
2022/12/05 08:18:47;;;;;;;3.60;1.92;;;7.50;99.90;;;;;;9574269;30;20149;-65
2022/12/05 08:24:42;;;;;;;3.85;2.13;;;7.50;99.90;;;;;;9578894;30;20057;-66
2022/12/05 08:29:38;;;;;;;5.00;2.35;;;6.40;99.90;;;;;;9568438;30;20839;-64
2022/12/05 08:34:39;;;;;;;4.68;1.80;;;7.60;99.90;;;;;;9585726;30;20136;-65
2022/12/05 08:39:40;;;;;;;4.00;2.13;;;7.60;99.90;;;;;;9632159;30;20031;-65
2022/12/05 08:44:40;;;;;;;3.35;1.77;;;7.60;99.90;;;;;;9651262;30;20042;-65
2022/12/05 08:49:41;;;;;;;3.00;1.63;;;7.60;99.90;;;;;;9654265;30;20308;-65
2022/12/05 08:54:42;;;;;;;3.67;2.00;;;7.60;99.90;;;;;;9650246;30;20078;-65
2022/12/05 08:59:43;;;;;;;3.80;1.80;;;7.60;99.90;;;;;;9641111;30;20066;-65
2022/12/05 09:04:43;;;;;;;3.15;1.70;;;7.60;99.90;;;;;;9650205;30;20045;-65
2022/12/05 09:09:44;;;;;;;5.40;1.70;;;7.60;99.90;;;;;;9596237;30;20054;-65
2022/12/05 09:14:45;;;;;;;4.00;1.92;;;7.70;99.90;;;;;;9582893;30;20074;-65
2022/12/05 09:19:50;;;;;;;3.45;1.77;;;7.60;99.90;;;;;;9575514;30;20074;-66
2022/12/05 09:24:54;;;;;;;2.80;1.73;;;7.70;99.90;;;;;;9573285;30;20042;-66
2022/12/05 09:29:55;;;;;;;3.78;1.75;;;7.70;99.90;;;;;;9572827;30;20073;-65
2022/12/05 09:34:56;;;;;;;3.47;1.83;;;7.70;99.90;;;;;;9571941;30;20244;-65
2022/12/05 09:40:08;;;;;;;3.47;1.58;;;7.70;99.90;;;;;;9551513;30;20039;-64
2022/12/05 09:45:32;;;;;;;3.47;1.80;;;7.70;99.90;;;;;;9570824;30;20058;-65
2022/12/05 09:50:43;;;;;;;2.65;1.63;;;7.70;99.90;;;;;;9575105;30;20472;-65
2022/12/05 09:56:14;;;;;;;2.92;1.40;;;7.70;99.90;;;;;;9595671;30;20050;-65
2022/12/05 10:01:40;;;;;;;3.95;1.42;;;7.70;99.90;;;;;;9550437;30;20126;-65
2022/12/05 10:07:00;;;;;;;2.95;1.90;;;7.70;99.90;;;;;;9572056;30;20403;-65
2022/12/05 10:13:00;;;;;;;4.05;2.00;;;7.70;99.90;;;;;;9647417;30;20057;-65
2022/12/05 10:18:27;;;;;;;2.72;1.38;;;7.70;99.90;;;;;;9445266;31;20512;-65
2022/12/05 10:23:50;;;;;;;2.40;1.48;;;7.70;99.90;;;;;;9564104;30;20093;-65
2022/12/05 10:29:12;;;;;;;3.40;1.73;;;7.70;99.90;;;;;;9636620;30;20030;-65
2022/12/05 10:34:31;;;;;;;2.53;1.50;;;7.70;99.90;;;;;;9617418;30;20050;-65
2022/12/05 10:39:32;;;;;;;3.20;1.65;;;7.70;99.90;;;;;;9576839;30;20042;-65
2022/12/05 10:44:32;;;;;;;3.55;1.75;;;7.70;99.90;;;;;;9580448;30;20551;-65
2022/12/05 10:49:33;;;;;;;3.42;1.90;;;7.80;99.90;;;;;;9588299;30;20416;-65
2022/12/05 10:54:44;;;;;;;2.40;1.50;;;7.80;99.90;;;;;;9579732;30;20128;-65
2022/12/05 10:59:46;;;;;;;3.88;1.63;;;7.80;99.90;;;;;;9578393;30;20034;-66
2022/12/05 11:04:47;;;;;;;3.17;1.55;;;7.70;99.90;;;;;;9576632;30;20049;-64
2022/12/05 11:09:48;;;;;;;1.98;1.48;;;7.10;99.90;;;;;;9572881;30;20034;-65
2022/12/05 11:14:53;;;;;;;3.10;1.60;;;7.80;99.90;;;;;;9558372;30;20050;-64
2022/12/05 11:19:53;;;;;;;4.00;1.90;;;7.80;99.90;;;;;;9576285;30;20450;-65
2022/12/05 11:24:54;;;;;;;3.47;1.83;;;7.80;99.90;;;;;;9572249;30;20258;-65
2022/12/05 11:30:04;;;;;;;3.70;2.08;;;7.80;99.90;;;;;;9580066;30;20544;-65
2022/12/05 11:35:10;;;;;;;2.70;1.50;;;7.80;99.90;;;;;;9578058;30;20089;-64
2022/12/05 11:40:21;;;;;;;1.95;1.42;;;7.80;99.90;;;;;;9578656;30;20575;-65
2022/12/05 11:45:45;;;;;;;3.05;1.73;;;7.80;99.90;;;;;;9581982;30;20042;-65
2022/12/05 11:51:05;;;;;;;3.38;1.55;;;7.80;99.90;;;;;;9569912;30;20057;-65
2022/12/05 11:56:12;;;;;;;2.65;1.70;;;7.80;99.90;;;;;;9593489;30;20060;-66
2022/12/05 12:01:34;;;;;;;4.35;1.90;;;7.80;99.90;;;;;;9652862;30;20412;-65
2022/12/05 12:06:53;;;;;;;4.20;2.10;;;7.80;99.90;;;;;;9638830;30;20043;-63
2022/12/05 12:12:00;;;;;;;2.42;1.75;;;7.80;99.90;;;;;;9640546;30;20047;-64
2022/12/05 12:17:18;;;;;;;4.28;2.03;;;7.80;99.90;;;;;;9641238;30;20105;-64
2022/12/05 12:22:41;;;;;;;2.60;1.60;;;7.80;99.90;;;;;;9662334;30;20034;-64
2022/12/05 12:28:13;;;;;;;3.45;1.60;;;7.80;99.90;;;;;;9656950;30;20069;-63
2022/12/05 12:33:19;;;;;;;3.22;1.60;;;7.80;99.90;;;;;;9658947;30;20082;-64
2022/12/05 12:38:42;;;;;;;2.88;1.45;;;7.80;99.90;;;;;;9623095;30;20296;-64
2022/12/05 12:44:00;;;;;;;3.13;1.80;;;7.80;99.90;;;;;;9578900;30;20046;-65
2022/12/05 12:49:44;;;;;;;3.33;1.80;;;7.80;99.90;;;;;;9574558;30;20039;-65
2022/12/05 12:54:57;;;;;;;4.72;2.10;;;7.80;99.90;;;;;;9547159;30;20248;-66
2022/12/05 13:00:19;;;;;;;2.97;1.77;;;7.80;99.90;;;;;;9557102;30;20081;-65
2022/12/05 13:05:25;;;;;;;2.40;1.52;;;7.80;99.90;;;;;;9555258;30;20039;-65
2022/12/05 13:10:34;;;;;;;5.78;1.90;;;7.80;99.90;;;;;;9575946;30;20141;-65
2022/12/05 13:20:55;;;;;;;4.20;1.83;;;7.80;99.90;;;;;;9649022;25;20580;-66
2022/12/05 13:25:59;;;;;;;3.95;1.98;;;7.80;99.90;;;;;;9600516;30;20038;-66
2022/12/05 13:31:01;;;;;;;4.63;1.98;;;7.80;99.90;;;;;;9591803;30;20856;-67
2022/12/05 13:47:06;;;;;;;3.63;1.80;;;7.90;99.90;;;;;;9601245;30;20042;-64
2022/12/05 13:52:14;;;;;;;3.83;1.67;;;8.00;99.90;;;;;;9606833;30;20357;-65
2022/12/05 13:57:54;;;;;;;3.25;1.70;;;7.90;99.90;;;;;;9649274;30;20037;-65
2022/12/05 14:02:58;;;;;;;3.13;1.50;;;7.90;99.90;;;;;;9514037;31;20045;-64
2022/12/05 14:07:59;;;;;;;4.00;2.08;;;7.90;99.90;;;;;;9595798;30;20042;-65
2022/12/05 14:13:22;;;;;;;6.70;2.00;;;8.00;99.90;;;;;;9669515;30;20074;-65
2022/12/05 14:18:49;;;;;;;3.72;1.73;;;7.90;99.90;;;;;;9660660;30;20062;-65
2022/12/05 14:24:01;;;;;;;2.70;1.58;;;7.90;99.90;;;;;;9669563;30;20116;-65
2022/12/05 14:29:27;;;;;;;3.75;1.65;;;7.90;99.90;;;;;;9668773;30;20125;-61
2022/12/05 14:34:33;;;;;;;5.03;1.58;;;7.90;99.90;;;;;;9675584;30;20359;-63
2022/12/05 14:39:41;;;;;;;3.47;1.80;;;7.90;99.90;;;;;;9673797;30;20289;-63
2022/12/05 14:44:50;;;;;;;3.08;1.63;;;7.90;99.90;;;;;;9674826;30;20068;-63
2022/12/05 14:50:16;;;;;;;5.10;1.75;;;7.80;99.90;;;;;;9675359;30;20026;-63
2022/12/05 14:55:17;;;;;;;2.78;1.70;;;7.80;99.90;;;;;;9674410;30;20137;-62
2022/12/05 15:00:22;;;;;;;2.20;1.55;;;7.90;99.90;;;;;;9674340;30;20038;-62
2022/12/05 15:05:34;;;;;;;14.60;2.25;;;7.90;99.90;;;;;;9674722;30;20125;-63
2022/12/05 15:10:38;;;;;;;5.63;1.83;;;8.00;99.90;;;;;;9674033;30;20049;-64
2022/12/05 15:15:38;;;;;;;3.88;1.73;;;7.90;99.90;;;;;;9674982;30;20092;-63
2022/12/05 15:21:05;;;;;;;3.50;1.52;;;7.90;99.90;;;;;;9674166;30;20619;-63
2022/12/05 15:26:31;;;;;;;5.10;1.75;;;7.90;99.90;;;;;;9675360;30;20093;-65
2022/12/05 15:31:43;;;;;;;3.72;1.60;;;7.90;99.90;;;;;;9664848;30;20064;-63
2022/12/05 15:36:58;;;;;;;2.80;1.70;;;7.90;99.90;;;;;;9671408;30;20045;-64
2022/12/05 15:41:59;;;;;;;3.55;1.60;;;7.90;99.90;;;;;;9672825;30;20121;-63
2022/12/05 15:47:00;;;;;;;2.47;1.40;;;7.90;99.90;;;;;;9671102;30;20022;-64
2022/12/05 15:52:29;;;;;;;2.38;1.42;;;7.90;99.90;;;;;;9666460;30;20389;-63
2022/12/05 15:57:41;;;;;;;3.45;1.58;;;7.90;99.90;;;;;;9667722;30;20583;-61
2022/12/05 16:03:00;;;;;;;2.45;1.50;;;8.00;99.90;;;;;;9667995;30;20049;-61
2022/12/05 16:08:02;;;;;;;;;;;7.90;99.90;;;;;;9678813;30;20061;-61
2022/12/05 16:13:12;;;;;;;3.38;1.80;;;7.90;99.90;;;;;;9680473;30;19931;-61
2022/12/05 16:18:29;;;;;;;3.33;2.00;;;8.20;99.90;;;;;;9679028;30;20054;-62
2022/12/05 16:23:32;;;;;;;3.17;1.58;;;8.00;99.90;;;;;;9681157;30;20034;-63
2022/12/05 16:28:33;;;;;;;3.13;1.60;;;7.90;99.90;;;;;;9669793;30;20516;-61
2022/12/05 16:33:33;;;;;;;2.40;1.35;;;7.90;99.90;;;;;;9651970;30;20176;-61
2022/12/05 16:38:35;;;;;;;4.75;2.10;;;7.90;99.90;;;;;;9672287;30;20201;-61
2022/12/05 16:43:36;;;;;;;4.72;2.50;;;7.40;99.90;;;;;;9677577;30;20030;-61
2022/12/05 16:48:37;;;;;;;3.03;1.90;;;7.90;99.90;;;;;;9679445;30;20528;-62
2022/12/05 16:53:45;;;;;;;3.75;1.83;;;8.00;99.90;;;;;;9674514;30;20081;-62
2022/12/05 16:58:46;;;;;;;4.70;1.85;;;7.80;99.90;;;;;;9664942;30;20051;-62
2022/12/05 17:03:47;;;;;;;4.50;2.00;;;7.80;99.90;;;;;;9664092;30;20506;-62
2022/12/05 17:08:48;;;;;;;3.38;1.85;;;7.80;99.90;;;;;;9666414;30;20017;-62
2022/12/05 17:13:50;;;;;;;4.47;2.13;;;7.80;99.90;;;;;;9676694;30;20042;-61
2022/12/05 17:18:51;;;;;;;2.67;1.52;;;7.80;99.90;;;;;;9674949;30;20061;-61
2022/12/05 17:23:52;;;;;;;5.43;1.70;;;7.80;99.90;;;;;;9678654;30;20125;-62
2022/12/05 17:28:53;;;;;;;3.63;1.80;;;7.80;99.90;;;;;;9678509;30;20616;-62
2022/12/05 17:33:53;;;;;;;4.07;1.80;;;7.90;99.90;;;;;;9679188;30;20141;-62
2022/12/05 17:38:54;;;;;;;5.82;1.90;;;7.90;99.90;;;;;;9677955;30;20026;-63
2022/12/05 17:43:55;;;;;;;5.55;2.15;;;8.00;99.90;;;;;;9667029;30;20049;-62
2022/12/05 17:48:57;;;;;;;3.88;1.92;;;8.30;99.90;;;;;;9664058;30;20038;-62
2022/12/05 17:53:57;;;;;;;5.68;2.28;;;8.00;99.90;;;;;;9665339;30;20050;-62
2022/12/05 17:58:58;;;;;;;5.32;1.90;;;7.90;99.90;;;;;;9663663;30;20502;-61
2022/12/05 18:03:59;;;;;;;5.05;2.22;;;8.00;99.90;;;;;;9649088;30;20509;-62
2022/12/05 18:09:01;;;;;;;5.93;2.10;;;8.00;99.90;;;;;;9674896;30;20058;-63
2022/12/05 18:14:02;;;;;;;4.47;1.92;;;8.00;99.90;;;;;;9674941;30;20042;-62
2022/12/05 18:19:03;;;;;;;7.53;1.90;;;8.50;99.90;;;;;;9672614;30;20054;-62
2022/12/05 18:24:04;;;;;;;5.20;2.08;;;8.00;99.90;;;;;;9677698;30;20093;-62
2022/12/05 18:29:04;;;;;;;4.57;1.75;;;8.10;99.90;;;;;;9670933;30;20042;-61
2022/12/05 18:34:05;;;;;;;4.10;2.03;;;8.10;99.90;;;;;;9672719;30;20140;-63
2022/12/05 18:39:09;;;;;;;5.97;2.22;;;8.10;99.90;;;;;;9676708;30;20044;-62
2022/12/05 18:44:10;;;;;;;4.03;1.77;;;8.10;99.90;;;;;;9673903;30;20030;-62
2022/12/05 18:49:12;;;;;;;4.40;2.00;;;8.10;99.90;;;;;;9678317;30;20034;-61
2022/12/05 18:54:13;;;;;;;4.70;1.58;;;8.10;99.90;;;;;;9675406;30;20042;-61
2022/12/05 18:59:16;;;;;;;6.28;2.30;;;8.10;99.90;;;;;;9664731;30;20042;-63
2022/12/05 19:04:20;;;;;;;3.80;1.90;;;8.10;99.90;;;;;;9671464;30;20459;-64
2022/12/05 19:09:23;;;;;;;5.38;2.00;;;8.10;99.90;;;;;;9672301;30;20037;-61
2022/12/05 19:14:26;;;;;;;2.90;1.70;;;8.10;99.90;;;;;;9673488;30;20047;-61
2022/12/05 19:19:28;;;;;;;6.25;1.80;;;8.10;99.90;;;;;;9669479;30;20045;-61
2022/12/05 19:24:29;;;;;;;4.22;1.58;;;8.10;99.90;;;;;;9674256;30;20037;-60
2022/12/05 19:29:29;;;;;;;3.50;1.92;;;8.10;99.90;;;;;;9676700;30;20034;-61
2022/12/05 19:34:32;;;;;;;2.22;1.45;;;8.10;99.90;;;;;;9680184;30;20302;-60
2022/12/05 19:39:32;;;;;;;2.60;1.65;;;8.10;99.90;;;;;;9680550;30;20038;-62
2022/12/05 19:44:33;;;;;;;2.30;1.60;;;8.30;99.90;;;;;;9678415;30;20034;-61
2022/12/05 19:49:34;;;;;;;2.95;1.60;;;8.10;99.90;;;;;;9682990;30;20060;-63
2022/12/05 19:54:34;;;;;;;3.40;1.92;;;8.10;99.90;;;;;;9679322;30;20050;-61
2022/12/05 19:59:35;;;;;;;6.63;2.83;;;8.10;99.90;;;;;;9676239;30;20022;-61
2022/12/05 20:04:36;;;;;;;2.50;1.55;;;8.10;99.90;;;;;;9682641;30;20061;-62
2022/12/05 20:09:37;;;;;;;4.07;1.55;;;8.10;99.90;;;;;;9681349;30;20041;-62
2022/12/05 20:14:38;;;;;;;3.70;1.70;;;8.00;99.90;;;;;;9679679;30;20053;-64
2022/12/05 20:19:39;;;;;;;2.83;1.50;;;8.10;99.90;;;;;;9681637;30;20547;-65
2022/12/05 20:24:40;;;;;;;5.22;1.65;;;8.00;99.90;;;;;;9681630;30;20084;-65
2022/12/05 20:29:40;;;;;;;2.75;1.40;;;8.10;99.90;;;;;;9680288;30;20038;-61
2022/12/05 20:34:41;;;;;;;2.58;1.52;;;8.10;99.90;;;;;;9667407;30;20041;-61
2022/12/05 20:39:42;;;;;;;2.78;1.10;;;8.10;99.90;;;;;;9678358;30;20133;-61
2022/12/05 20:44:43;;;;;;;2.58;1.23;;;8.10;99.90;;;;;;9679563;30;20393;-62
2022/12/05 20:49:43;;;;;;;2.47;1.30;;;8.10;99.90;;;;;;9680127;30;20018;-62
2022/12/05 20:54:44;;;;;;;2.75;1.58;;;8.10;99.90;;;;;;9677588;30;20490;-61
2022/12/05 20:59:45;;;;;;;2.55;1.08;;;8.10;99.90;;;;;;9674964;30;20117;-61
2022/12/05 21:04:46;;;;;;;2.47;1.40;;;8.30;99.90;;;;;;9677099;30;20080;-61
2022/12/05 21:09:47;;;;;;;2.22;1.25;;;8.10;99.90;;;;;;9673633;30;20523;-62
2022/12/05 21:14:48;;;;;;;2.70;1.20;;;8.10;99.90;;;;;;9665725;30;20141;-64
2022/12/05 21:19:49;;;;;;;2.08;1.08;;;8.10;99.90;;;;;;9659134;30;20567;-62
2022/12/05 21:24:49;;;;;;;1.65;0.98;;;8.10;99.90;;;;;;9677270;30;20033;-61
2022/12/05 21:29:51;;;;;;;3.97;1.10;;;8.10;99.90;;;;;;9673733;30;20049;-62
2022/12/05 21:34:51;;;;;;;2.17;1.17;;;8.00;99.90;;;;;;9674224;30;20082;-62
2022/12/05 21:39:52;;;;;;;1.77;1.00;;;8.10;99.90;;;;;;9670782;30;20136;-65
2022/12/05 21:44:53;;;;;;;2.75;1.10;;;8.10;99.90;;;;;;9673059;30;20030;-61
2022/12/05 21:49:53;;;;;;;2.75;0.90;;;8.10;99.90;;;;;;9664912;30;20089;-60
2022/12/05 21:54:54;;;;;;;5.47;1.35;;;8.10;99.90;;;;;;9637767;30;20072;-61
2022/12/05 21:59:55;;;;;;;2.30;1.30;;;8.10;99.90;;;;;;9660277;30;20464;-61
2022/12/05 22:04:55;;;;;;;2.38;1.35;;;8.10;99.90;;;;;;9669231;30;20112;-61
2022/12/05 22:09:56;;;;;;;1.13;0.85;;;8.00;99.90;;;;;;9671963;30;20467;-60
2022/12/05 22:14:57;;;;;;;2.25;1.25;;;8.10;99.90;;;;;;9673354;30;20046;-62
2022/12/05 22:19:57;;;;;;;2.85;1.40;;;8.00;99.90;;;;;;9680696;30;20136;-61
2022/12/05 22:24:58;;;;;;;3.40;1.55;;;8.10;99.90;;;;;;9678381;30;20531;-62
2022/12/05 22:29:59;;;;;;;2.38;1.15;;;8.00;99.90;;;;;;9676067;30;20041;-62
2022/12/05 22:35:00;;;;;;;1.83;1.05;;;8.00;99.90;;;;;;9673730;30;20401;-62
2022/12/05 22:40:01;;;;;;;2.58;1.30;;;8.00;99.90;;;;;;9671806;30;20129;-63
2022/12/05 22:45:02;;;;;;;1.55;1.02;;;8.00;99.90;;;;;;9672110;30;20034;-63
2022/12/05 22:50:03;;;;;;;2.10;1.10;;;8.00;99.90;;;;;;9677212;30;20145;-61
2022/12/05 22:55:04;;;;;;;2.00;1.30;;;8.00;99.90;;;;;;9669094;30;20038;-61
2022/12/05 23:00:05;;;;;;;2.38;1.35;;;8.10;99.90;;;;;;9668552;30;20460;-62
2022/12/05 23:05:06;;;;;;;3.05;1.15;;;8.00;99.90;;;;;;9672757;30;20034;-61
2022/12/05 23:10:07;;;;;;;2.30;1.30;;;8.10;99.90;;;;;;9674428;30;20412;-61
2022/12/05 23:15:08;;;;;;;2.35;1.25;;;8.10;99.90;;;;;;9674038;30;20046;-62
2022/12/05 23:20:09;;;;;;;2.50;1.15;;;8.10;99.90;;;;;;9657862;30;20046;-61
2022/12/05 23:25:10;;;;;;;3.70;1.15;;;8.00;99.90;;;;;;9676839;30;20037;-61
2022/12/05 23:30:12;;;;;;;2.28;1.25;;;8.10;99.90;;;;;;9676608;30;20040;-61
2022/12/05 23:35:15;;;;;;;4.25;1.50;;;8.00;99.90;;;;;;9676821;30;20050;-61
2022/12/05 23:40:16;;;;;;;3.47;1.50;;;8.10;99.90;;;;;;9674330;30;20401;-63
2022/12/05 23:45:17;;;;;;;2.25;1.40;;;8.00;99.90;;;;;;9676111;30;20125;-62
2022/12/05 23:50:18;;;;;;;4.35;1.30;;;7.80;99.90;;;;;;9678645;30;20046;-61
2022/12/05 23:55:18;;;;;;;4.57;1.00;;;8.10;99.90;;;;;;9675825;30;20050;-62
